sensor_id;sensor_type;location;lat;lon;timestamp;temperature;humidity
51029;DHT22;37054;52.054;8.600;2024-03-08T00:02:23;4.70;56.20
51029;DHT22;37054;52.054;8.600;2024-03-08T00:04:49;4.70;56.20
51029;DHT22;37054;52.054;8.600;2024-03-08T00:07:15;4.70;56.60
51029;DHT22;37054;52.054;8.600;2024-03-08T00:09:40;4.70;56.70
51029;DHT22;37054;52.054;8.600;2024-03-08T00:12:06;4.70;56.70
51029;DHT22;37054;52.054;8.600;2024-03-08T00:14:32;4.70;56.60
51029;DHT22;37054;52.054;8.600;2024-03-08T00:16:58;4.60;56.80
51029;DHT22;37054;52.054;8.600;2024-03-08T00:19:24;4.70;57.00
51029;DHT22;37054;52.054;8.600;2024-03-08T00:21:49;4.70;57.00
51029;DHT22;37054;52.054;8.600;2024-03-08T00:24:15;4.70;57.00
51029;DHT22;37054;52.054;8.600;2024-03-08T00:26:41;4.70;57.10
51029;DHT22;37054;52.054;8.600;2024-03-08T00:29:08;4.70;57.00
51029;DHT22;37054;52.054;8.600;2024-03-08T00:31:34;4.70;57.20
51029;DHT22;37054;52.054;8.600;2024-03-08T00:34:00;4.80;57.20
51029;DHT22;37054;52.054;8.600;2024-03-08T00:36:26;4.80;57.20
51029;DHT22;37054;52.054;8.600;2024-03-08T00:38:51;4.80;57.20
51029;DHT22;37054;52.054;8.600;2024-03-08T00:41:17;4.80;57.50
51029;DHT22;37054;52.054;8.600;2024-03-08T00:43:42;4.90;57.50
51029;DHT22;37054;52.054;8.600;2024-03-08T00:46:08;4.90;57.50
51029;DHT22;37054;52.054;8.600;2024-03-08T00:48:33;5.00;57.50
51029;DHT22;37054;52.054;8.600;2024-03-08T00:50:59;5.00;57.40
51029;DHT22;37054;52.054;8.600;2024-03-08T00:53:24;5.00;57.40
51029;DHT22;37054;52.054;8.600;2024-03-08T00:55:50;5.00;57.50
51029;DHT22;37054;52.054;8.600;2024-03-08T00:58:15;5.00;57.40
51029;DHT22;37054;52.054;8.600;2024-03-08T01:00:41;5.00;57.40
51029;DHT22;37054;52.054;8.600;2024-03-08T01:03:06;5.00;57.40
51029;DHT22;37054;52.054;8.600;2024-03-08T01:05:32;5.00;57.30
51029;DHT22;37054;52.054;8.600;2024-03-08T01:07:58;5.00;57.40
51029;DHT22;37054;52.054;8.600;2024-03-08T01:10:23;5.00;57.20
51029;DHT22;37054;52.054;8.600;2024-03-08T01:12:49;4.90;57.20
51029;DHT22;37054;52.054;8.600;2024-03-08T01:15:15;4.90;57.10
51029;DHT22;37054;52.054;8.600;2024-03-08T01:17:41;4.80;57.00
51029;DHT22;37054;52.054;8.600;2024-03-08T01:20:07;4.80;57.10
51029;DHT22;37054;52.054;8.600;2024-03-08T01:22:32;4.70;57.20
51029;DHT22;37054;52.054;8.600;2024-03-08T01:24:58;4.70;57.30
51029;DHT22;37054;52.054;8.600;2024-03-08T01:27:24;4.70;57.40
51029;DHT22;37054;52.054;8.600;2024-03-08T01:29:50;4.70;57.50
51029;DHT22;37054;52.054;8.600;2024-03-08T01:32:16;4.60;57.40
51029;DHT22;37054;52.054;8.600;2024-03-08T01:34:41;4.60;57.40
51029;DHT22;37054;52.054;8.600;2024-03-08T01:37:07;4.60;57.40
51029;DHT22;37054;52.054;8.600;2024-03-08T01:39:33;4.60;57.30
51029;DHT22;37054;52.054;8.600;2024-03-08T01:41:59;4.50;57.30
51029;DHT22;37054;52.054;8.600;2024-03-08T01:44:26;4.50;57.30
51029;DHT22;37054;52.054;8.600;2024-03-08T01:46:52;4.40;57.50
51029;DHT22;37054;52.054;8.600;2024-03-08T01:49:19;4.40;57.60
51029;DHT22;37054;52.054;8.600;2024-03-08T01:51:46;4.40;57.70
51029;DHT22;37054;52.054;8.600;2024-03-08T01:54:12;4.50;57.80
51029;DHT22;37054;52.054;8.600;2024-03-08T01:56:39;4.40;57.90
51029;DHT22;37054;52.054;8.600;2024-03-08T01:59:05;4.50;57.90
51029;DHT22;37054;52.054;8.600;2024-03-08T02:01:33;4.50;57.90
51029;DHT22;37054;52.054;8.600;2024-03-08T02:04:00;4.50;57.90
51029;DHT22;37054;52.054;8.600;2024-03-08T02:06:26;4.50;57.90
51029;DHT22;37054;52.054;8.600;2024-03-08T02:08:51;4.50;58.10
51029;DHT22;37054;52.054;8.600;2024-03-08T02:11:17;4.50;58.20
51029;DHT22;37054;52.054;8.600;2024-03-08T02:13:44;4.60;58.50
51029;DHT22;37054;52.054;8.600;2024-03-08T02:16:09;4.70;58.60
51029;DHT22;37054;52.054;8.600;2024-03-08T02:18:35;4.70;58.60
51029;DHT22;37054;52.054;8.600;2024-03-08T02:21:02;4.80;58.60
51029;DHT22;37054;52.054;8.600;2024-03-08T02:23:28;4.80;58.40
51029;DHT22;37054;52.054;8.600;2024-03-08T02:25:54;4.80;58.40
51029;DHT22;37054;52.054;8.600;2024-03-08T02:28:20;4.80;58.50
51029;DHT22;37054;52.054;8.600;2024-03-08T02:30:50;4.90;58.50
51029;DHT22;37054;52.054;8.600;2024-03-08T02:33:22;5.00;58.50
51029;DHT22;37054;52.054;8.600;2024-03-08T02:35:48;5.00;58.40
51029;DHT22;37054;52.054;8.600;2024-03-08T02:38:18;5.00;58.30
51029;DHT22;37054;52.054;8.600;2024-03-08T02:40:45;5.00;58.30
51029;DHT22;37054;52.054;8.600;2024-03-08T02:43:12;5.00;58.10
51029;DHT22;37054;52.054;8.600;2024-03-08T02:45:38;5.00;57.90
51029;DHT22;37054;52.054;8.600;2024-03-08T02:48:04;5.00;57.90
51029;DHT22;37054;52.054;8.600;2024-03-08T02:50:32;5.00;57.90
51029;DHT22;37054;52.054;8.600;2024-03-08T02:52:57;5.00;58.00
51029;DHT22;37054;52.054;8.600;2024-03-08T02:55:23;5.00;57.90
51029;DHT22;37054;52.054;8.600;2024-03-08T02:57:51;5.00;57.80
51029;DHT22;37054;52.054;8.600;2024-03-08T03:00:17;5.00;57.70
51029;DHT22;37054;52.054;8.600;2024-03-08T03:02:45;5.00;57.70
51029;DHT22;37054;52.054;8.600;2024-03-08T03:05:10;5.00;57.70
51029;DHT22;37054;52.054;8.600;2024-03-08T03:07:37;5.00;57.70
51029;DHT22;37054;52.054;8.600;2024-03-08T03:10:03;5.00;57.60
51029;DHT22;37054;52.054;8.600;2024-03-08T03:12:30;4.90;57.60
51029;DHT22;37054;52.054;8.600;2024-03-08T03:14:56;4.90;57.60
51029;DHT22;37054;52.054;8.600;2024-03-08T03:17:25;4.90;57.60
51029;DHT22;37054;52.054;8.600;2024-03-08T03:19:51;4.90;57.50
51029;DHT22;37054;52.054;8.600;2024-03-08T03:22:18;4.90;57.40
51029;DHT22;37054;52.054;8.600;2024-03-08T03:24:44;4.80;57.40
51029;DHT22;37054;52.054;8.600;2024-03-08T03:27:12;4.80;57.30
51029;DHT22;37054;52.054;8.600;2024-03-08T03:29:41;4.80;57.30
51029;DHT22;37054;52.054;8.600;2024-03-08T03:32:15;4.80;57.50
51029;DHT22;37054;52.054;8.600;2024-03-08T03:34:41;4.80;57.50
51029;DHT22;37054;52.054;8.600;2024-03-08T03:37:07;4.70;57.40
51029;DHT22;37054;52.054;8.600;2024-03-08T03:39:34;4.70;57.40
51029;DHT22;37054;52.054;8.600;2024-03-08T03:42:00;4.70;57.40
51029;DHT22;37054;52.054;8.600;2024-03-08T03:44:28;4.70;57.60
51029;DHT22;37054;52.054;8.600;2024-03-08T03:46:53;4.70;57.60
51029;DHT22;37054;52.054;8.600;2024-03-08T03:49:19;4.70;57.60
51029;DHT22;37054;52.054;8.600;2024-03-08T03:51:45;4.70;57.60
51029;DHT22;37054;52.054;8.600;2024-03-08T03:54:11;4.70;57.60
51029;DHT22;37054;52.054;8.600;2024-03-08T03:56:36;4.70;57.50
51029;DHT22;37054;52.054;8.600;2024-03-08T03:59:02;4.70;57.60
51029;DHT22;37054;52.054;8.600;2024-03-08T04:01:27;4.70;57.50
51029;DHT22;37054;52.054;8.600;2024-03-08T04:03:54;4.70;57.40
51029;DHT22;37054;52.054;8.600;2024-03-08T04:06:20;4.70;57.40
51029;DHT22;37054;52.054;8.600;2024-03-08T04:08:45;4.70;57.30
51029;DHT22;37054;52.054;8.600;2024-03-08T04:11:11;4.70;57.20
51029;DHT22;37054;52.054;8.600;2024-03-08T04:13:37;4.70;57.30
51029;DHT22;37054;52.054;8.600;2024-03-08T04:16:03;4.70;57.30
51029;DHT22;37054;52.054;8.600;2024-03-08T04:18:33;4.60;57.10
51029;DHT22;37054;52.054;8.600;2024-03-08T04:21:01;4.60;57.00
51029;DHT22;37054;52.054;8.600;2024-03-08T04:23:27;4.60;57.10
51029;DHT22;37054;52.054;8.600;2024-03-08T04:25:54;4.50;57.30
51029;DHT22;37054;52.054;8.600;2024-03-08T04:28:19;4.50;57.40
51029;DHT22;37054;52.054;8.600;2024-03-08T04:30:45;4.60;57.40
51029;DHT22;37054;52.054;8.600;2024-03-08T04:33:11;4.60;57.30
51029;DHT22;37054;52.054;8.600;2024-03-08T04:35:36;4.60;57.30
51029;DHT22;37054;52.054;8.600;2024-03-08T04:38:02;4.60;57.30
51029;DHT22;37054;52.054;8.600;2024-03-08T04:40:30;4.50;57.10
51029;DHT22;37054;52.054;8.600;2024-03-08T04:42:58;4.40;57.10
51029;DHT22;37054;52.054;8.600;2024-03-08T04:45:24;4.40;57.10
51029;DHT22;37054;52.054;8.600;2024-03-08T04:47:51;4.40;57.10
51029;DHT22;37054;52.054;8.600;2024-03-08T04:50:18;4.30;57.20
51029;DHT22;37054;52.054;8.600;2024-03-08T04:52:43;4.30;57.20
51029;DHT22;37054;52.054;8.600;2024-03-08T04:55:09;4.30;57.20
51029;DHT22;37054;52.054;8.600;2024-03-08T04:57:34;4.30;57.30
51029;DHT22;37054;52.054;8.600;2024-03-08T05:00:00;4.20;57.30
51029;DHT22;37054;52.054;8.600;2024-03-08T05:02:26;4.20;57.40
51029;DHT22;37054;52.054;8.600;2024-03-08T05:04:52;4.20;57.30
51029;DHT22;37054;52.054;8.600;2024-03-08T05:07:17;4.10;56.90
51029;DHT22;37054;52.054;8.600;2024-03-08T05:09:43;4.00;56.70
51029;DHT22;37054;52.054;8.600;2024-03-08T05:12:08;3.80;56.80
51029;DHT22;37054;52.054;8.600;2024-03-08T05:14:34;3.80;56.80
51029;DHT22;37054;52.054;8.600;2024-03-08T05:17:02;3.80;57.10
51029;DHT22;37054;52.054;8.600;2024-03-08T05:19:27;3.70;57.30
51029;DHT22;37054;52.054;8.600;2024-03-08T05:21:55;3.70;57.60
51029;DHT22;37054;52.054;8.600;2024-03-08T05:24:20;3.70;57.80
51029;DHT22;37054;52.054;8.600;2024-03-08T05:26:46;3.70;57.80
51029;DHT22;37054;52.054;8.600;2024-03-08T05:29:12;3.80;58.10
51029;DHT22;37054;52.054;8.600;2024-03-08T05:31:50;3.80;58.10
51029;DHT22;37054;52.054;8.600;2024-03-08T05:34:16;3.80;58.10
51029;DHT22;37054;52.054;8.600;2024-03-08T05:36:42;3.80;58.10
51029;DHT22;37054;52.054;8.600;2024-03-08T05:39:10;3.80;58.10
51029;DHT22;37054;52.054;8.600;2024-03-08T05:41:37;3.80;58.20
51029;DHT22;37054;52.054;8.600;2024-03-08T05:44:03;3.80;58.10
51029;DHT22;37054;52.054;8.600;2024-03-08T05:46:29;3.80;58.00
51029;DHT22;37054;52.054;8.600;2024-03-08T05:48:54;3.80;57.90
51029;DHT22;37054;52.054;8.600;2024-03-08T05:51:20;3.80;57.80
51029;DHT22;37054;52.054;8.600;2024-03-08T05:53:47;3.70;57.70
51029;DHT22;37054;52.054;8.600;2024-03-08T05:56:12;3.70;57.60
51029;DHT22;37054;52.054;8.600;2024-03-08T05:58:38;3.60;57.60
51029;DHT22;37054;52.054;8.600;2024-03-08T06:01:03;3.50;57.60
51029;DHT22;37054;52.054;8.600;2024-03-08T06:03:33;3.50;57.70
51029;DHT22;37054;52.054;8.600;2024-03-08T06:05:59;3.50;57.90
51029;DHT22;37054;52.054;8.600;2024-03-08T06:08:24;3.50;58.00
51029;DHT22;37054;52.054;8.600;2024-03-08T06:10:55;3.60;58.20
51029;DHT22;37054;52.054;8.600;2024-03-08T06:13:21;3.70;58.40
51029;DHT22;37054;52.054;8.600;2024-03-08T06:15:46;3.80;58.70
51029;DHT22;37054;52.054;8.600;2024-03-08T06:18:12;4.00;58.90
51029;DHT22;37054;52.054;8.600;2024-03-08T06:20:37;4.20;59.10
51029;DHT22;37054;52.054;8.600;2024-03-08T06:23:03;4.40;59.30
51029;DHT22;37054;52.054;8.600;2024-03-08T06:25:28;4.60;59.60
51029;DHT22;37054;52.054;8.600;2024-03-08T06:27:54;4.80;59.90
51029;DHT22;37054;52.054;8.600;2024-03-08T06:30:19;5.10;60.20
51029;DHT22;37054;52.054;8.600;2024-03-08T06:32:46;5.40;60.50
51029;DHT22;37054;52.054;8.600;2024-03-08T06:35:12;5.70;60.70
51029;DHT22;37054;52.054;8.600;2024-03-08T06:37:37;5.90;60.80
51029;DHT22;37054;52.054;8.600;2024-03-08T06:40:03;6.20;60.50
51029;DHT22;37054;52.054;8.600;2024-03-08T06:42:29;6.50;60.10
51029;DHT22;37054;52.054;8.600;2024-03-08T06:44:59;6.80;59.80
51029;DHT22;37054;52.054;8.600;2024-03-08T06:47:29;7.00;58.80
51029;DHT22;37054;52.054;8.600;2024-03-08T06:49:55;7.30;58.10
51029;DHT22;37054;52.054;8.600;2024-03-08T06:52:21;7.60;57.80
51029;DHT22;37054;52.054;8.600;2024-03-08T06:54:47;7.90;56.50
51029;DHT22;37054;52.054;8.600;2024-03-08T06:57:13;8.10;56.40
51029;DHT22;37054;52.054;8.600;2024-03-08T06:59:39;8.40;55.90
51029;DHT22;37054;52.054;8.600;2024-03-08T07:02:05;8.70;55.30
51029;DHT22;37054;52.054;8.600;2024-03-08T07:04:30;9.00;54.60
51029;DHT22;37054;52.054;8.600;2024-03-08T07:06:56;9.20;54.10
51029;DHT22;37054;52.054;8.600;2024-03-08T07:09:23;9.50;52.10
51029;DHT22;37054;52.054;8.600;2024-03-08T07:11:50;9.70;52.00
51029;DHT22;37054;52.054;8.600;2024-03-08T07:14:23;10.00;51.40
51029;DHT22;37054;52.054;8.600;2024-03-08T07:16:49;10.20;50.60
51029;DHT22;37054;52.054;8.600;2024-03-08T07:19:15;10.40;49.30
51029;DHT22;37054;52.054;8.600;2024-03-08T07:21:41;10.60;49.60
51029;DHT22;37054;52.054;8.600;2024-03-08T07:24:07;10.90;49.40
51029;DHT22;37054;52.054;8.600;2024-03-08T07:26:39;11.20;48.30
51029;DHT22;37054;52.054;8.600;2024-03-08T07:29:04;11.40;48.40
51029;DHT22;37054;52.054;8.600;2024-03-08T07:31:29;11.70;48.50
51029;DHT22;37054;52.054;8.600;2024-03-08T07:34:15;12.10;48.40
51029;DHT22;37054;52.054;8.600;2024-03-08T07:36:42;12.40;46.10
51029;DHT22;37054;52.054;8.600;2024-03-08T07:39:07;12.70;45.50
51029;DHT22;37054;52.054;8.600;2024-03-08T07:41:37;12.90;45.80
51029;DHT22;37054;52.054;8.600;2024-03-08T07:44:06;13.20;44.70
51029;DHT22;37054;52.054;8.600;2024-03-08T07:46:31;13.40;43.80
51029;DHT22;37054;52.054;8.600;2024-03-08T07:48:59;13.60;42.80
51029;DHT22;37054;52.054;8.600;2024-03-08T07:51:25;13.80;41.70
51029;DHT22;37054;52.054;8.600;2024-03-08T07:53:50;13.90;41.70
51029;DHT22;37054;52.054;8.600;2024-03-08T07:56:16;14.10;41.40
51029;DHT22;37054;52.054;8.600;2024-03-08T07:58:44;14.30;40.40
51029;DHT22;37054;52.054;8.600;2024-03-08T08:01:16;14.40;40.10
51029;DHT22;37054;52.054;8.600;2024-03-08T08:03:42;14.60;39.70
51029;DHT22;37054;52.054;8.600;2024-03-08T08:06:07;14.80;39.10
51029;DHT22;37054;52.054;8.600;2024-03-08T08:08:33;14.90;38.60
51029;DHT22;37054;52.054;8.600;2024-03-08T08:10:58;15.10;38.10
51029;DHT22;37054;52.054;8.600;2024-03-08T08:13:24;15.10;37.10
51029;DHT22;37054;52.054;8.600;2024-03-08T08:15:50;15.20;37.40
51029;DHT22;37054;52.054;8.600;2024-03-08T08:18:15;15.30;37.10
51029;DHT22;37054;52.054;8.600;2024-03-08T08:20:41;15.50;36.40
51029;DHT22;37054;52.054;8.600;2024-03-08T08:23:06;15.50;35.80
51029;DHT22;37054;52.054;8.600;2024-03-08T08:25:32;15.50;35.60
51029;DHT22;37054;52.054;8.600;2024-03-08T08:27:59;15.60;35.30
51029;DHT22;37054;52.054;8.600;2024-03-08T08:30:25;15.70;35.70
51029;DHT22;37054;52.054;8.600;2024-03-08T08:32:50;16.00;36.40
51029;DHT22;37054;52.054;8.600;2024-03-08T08:35:16;16.20;36.40
51029;DHT22;37054;52.054;8.600;2024-03-08T08:37:43;16.50;35.60
51029;DHT22;37054;52.054;8.600;2024-03-08T08:40:10;16.70;35.10
51029;DHT22;37054;52.054;8.600;2024-03-08T08:42:36;16.80;33.90
51029;DHT22;37054;52.054;8.600;2024-03-08T08:45:04;16.90;33.30
51029;DHT22;37054;52.054;8.600;2024-03-08T08:47:34;17.00;33.00
51029;DHT22;37054;52.054;8.600;2024-03-08T08:49:59;16.90;33.00
51029;DHT22;37054;52.054;8.600;2024-03-08T08:52:26;17.10;33.30
51029;DHT22;37054;52.054;8.600;2024-03-08T08:54:51;17.10;32.40
51029;DHT22;37054;52.054;8.600;2024-03-08T08:57:17;17.10;32.20
51029;DHT22;37054;52.054;8.600;2024-03-08T08:59:42;17.20;33.10
51029;DHT22;37054;52.054;8.600;2024-03-08T09:02:08;17.50;32.60
51029;DHT22;37054;52.054;8.600;2024-03-08T09:04:36;17.60;32.50
51029;DHT22;37054;52.054;8.600;2024-03-08T09:07:02;17.80;32.50
51029;DHT22;37054;52.054;8.600;2024-03-08T09:09:27;17.80;31.00
51029;DHT22;37054;52.054;8.600;2024-03-08T09:11:54;17.90;31.60
51029;DHT22;37054;52.054;8.600;2024-03-08T09:14:20;18.10;31.70
51029;DHT22;37054;52.054;8.600;2024-03-08T09:16:45;18.10;30.80
51029;DHT22;37054;52.054;8.600;2024-03-08T09:19:12;18.10;30.70
51029;DHT22;37054;52.054;8.600;2024-03-08T09:21:38;18.10;30.70
51029;DHT22;37054;52.054;8.600;2024-03-08T09:24:05;18.10;30.50
51029;DHT22;37054;52.054;8.600;2024-03-08T09:26:32;18.10;30.80
51029;DHT22;37054;52.054;8.600;2024-03-08T09:28:58;18.20;30.50
51029;DHT22;37054;52.054;8.600;2024-03-08T09:31:24;18.30;31.10
51029;DHT22;37054;52.054;8.600;2024-03-08T09:33:51;18.40;29.90
51029;DHT22;37054;52.054;8.600;2024-03-08T09:36:17;18.30;30.00
51029;DHT22;37054;52.054;8.600;2024-03-08T09:38:43;18.30;29.50
51029;DHT22;37054;52.054;8.600;2024-03-08T09:41:09;18.20;30.00
51029;DHT22;37054;52.054;8.600;2024-03-08T09:43:36;18.30;30.20
51029;DHT22;37054;52.054;8.600;2024-03-08T09:46:03;18.30;29.60
51029;DHT22;37054;52.054;8.600;2024-03-08T09:48:29;18.30;29.80
51029;DHT22;37054;52.054;8.600;2024-03-08T09:50:55;18.30;30.00
51029;DHT22;37054;52.054;8.600;2024-03-08T09:53:22;18.40;30.40
51029;DHT22;37054;52.054;8.600;2024-03-08T09:55:48;18.50;29.70
51029;DHT22;37054;52.054;8.600;2024-03-08T09:58:15;18.50;29.40
51029;DHT22;37054;52.054;8.600;2024-03-08T10:00:43;18.40;29.30
51029;DHT22;37054;52.054;8.600;2024-03-08T10:03:08;18.30;29.30
51029;DHT22;37054;52.054;8.600;2024-03-08T10:05:34;18.30;29.40
51029;DHT22;37054;52.054;8.600;2024-03-08T10:08:00;18.30;29.60
51029;DHT22;37054;52.054;8.600;2024-03-08T10:10:25;18.30;29.40
51029;DHT22;37054;52.054;8.600;2024-03-08T10:12:52;18.20;29.40
51029;DHT22;37054;52.054;8.600;2024-03-08T10:15:17;18.30;29.50
51029;DHT22;37054;52.054;8.600;2024-03-08T10:17:43;18.30;29.50
51029;DHT22;37054;52.054;8.600;2024-03-08T10:20:18;18.30;29.40
51029;DHT22;37054;52.054;8.600;2024-03-08T10:22:44;18.30;29.60
51029;DHT22;37054;52.054;8.600;2024-03-08T10:25:11;18.30;29.10
51029;DHT22;37054;52.054;8.600;2024-03-08T10:27:41;18.30;29.30
51029;DHT22;37054;52.054;8.600;2024-03-08T10:30:11;18.40;29.20
51029;DHT22;37054;52.054;8.600;2024-03-08T10:32:38;18.30;28.90
51029;DHT22;37054;52.054;8.600;2024-03-08T10:35:05;18.30;29.30
51029;DHT22;37054;52.054;8.600;2024-03-08T10:37:33;18.20;29.10
51029;DHT22;37054;52.054;8.600;2024-03-08T10:40:04;18.30;29.50
51029;DHT22;37054;52.054;8.600;2024-03-08T10:42:40;18.30;29.10
51029;DHT22;37054;52.054;8.600;2024-03-08T10:50:38;18.00;28.80
51029;DHT22;37054;52.054;8.600;2024-03-08T10:53:06;18.00;29.10
51029;DHT22;37054;52.054;8.600;2024-03-08T10:55:33;18.00;29.00
51029;DHT22;37054;52.054;8.600;2024-03-08T10:57:59;17.90;29.10
51029;DHT22;37054;52.054;8.600;2024-03-08T11:00:26;17.80;29.20
51029;DHT22;37054;52.054;8.600;2024-03-08T11:02:53;17.70;29.70
51029;DHT22;37054;52.054;8.600;2024-03-08T11:05:48;17.70;30.20
51029;DHT22;37054;52.054;8.600;2024-03-08T11:08:19;17.80;29.80
51029;DHT22;37054;52.054;8.600;2024-03-08T11:10:53;17.70;29.70
51029;DHT22;37054;52.054;8.600;2024-03-08T11:16:59;17.80;30.00
51029;DHT22;37054;52.054;8.600;2024-03-08T11:21:36;17.80;29.90
51029;DHT22;37054;52.054;8.600;2024-03-08T11:24:12;17.80;29.90
51029;DHT22;37054;52.054;8.600;2024-03-08T11:26:39;17.80;30.00
51029;DHT22;37054;52.054;8.600;2024-03-08T11:32:09;17.60;29.90
51029;DHT22;37054;52.054;8.600;2024-03-08T11:34:36;17.50;30.20
51029;DHT22;37054;52.054;8.600;2024-03-08T11:37:05;17.40;30.20
51029;DHT22;37054;52.054;8.600;2024-03-08T11:39:35;17.40;30.30
51029;DHT22;37054;52.054;8.600;2024-03-08T11:42:02;17.40;30.60
51029;DHT22;37054;52.054;8.600;2024-03-08T11:44:28;17.50;30.20
51029;DHT22;37054;52.054;8.600;2024-03-08T11:46:54;17.50;30.50
51029;DHT22;37054;52.054;8.600;2024-03-08T11:49:19;17.50;30.70
51029;DHT22;37054;52.054;8.600;2024-03-08T11:51:46;17.50;30.70
51029;DHT22;37054;52.054;8.600;2024-03-08T11:54:12;17.40;30.10
51029;DHT22;37054;52.054;8.600;2024-03-08T11:56:41;17.30;30.30
51029;DHT22;37054;52.054;8.600;2024-03-08T11:59:11;17.20;30.30
51029;DHT22;37054;52.054;8.600;2024-03-08T12:01:38;16.90;30.30
51029;DHT22;37054;52.054;8.600;2024-03-08T12:04:03;16.80;30.70
51029;DHT22;37054;52.054;8.600;2024-03-08T12:06:38;16.60;31.00
51029;DHT22;37054;52.054;8.600;2024-03-08T12:09:07;16.60;31.50
51029;DHT22;37054;52.054;8.600;2024-03-08T12:11:34;16.70;31.90
51029;DHT22;37054;52.054;8.600;2024-03-08T12:14:01;16.80;32.20
51029;DHT22;37054;52.054;8.600;2024-03-08T12:16:27;17.00;31.30
51029;DHT22;37054;52.054;8.600;2024-03-08T12:18:53;17.00;30.80
51029;DHT22;37054;52.054;8.600;2024-03-08T12:21:19;17.10;30.90
51029;DHT22;37054;52.054;8.600;2024-03-08T12:24:05;17.20;31.30
51029;DHT22;37054;52.054;8.600;2024-03-08T12:26:35;17.10;30.30
51029;DHT22;37054;52.054;8.600;2024-03-08T12:29:21;16.90;30.20
51029;DHT22;37054;52.054;8.600;2024-03-08T12:31:51;16.70;30.40
51029;DHT22;37054;52.054;8.600;2024-03-08T12:34:17;16.60;30.70
51029;DHT22;37054;52.054;8.600;2024-03-08T12:36:50;16.50;30.70
51029;DHT22;37054;52.054;8.600;2024-03-08T12:39:19;16.40;30.70
51029;DHT22;37054;52.054;8.600;2024-03-08T12:41:48;16.30;31.20
51029;DHT22;37054;52.054;8.600;2024-03-08T12:44:18;16.20;31.40
51029;DHT22;37054;52.054;8.600;2024-03-08T12:46:47;16.10;31.40
51029;DHT22;37054;52.054;8.600;2024-03-08T12:49:13;16.00;31.40
51029;DHT22;37054;52.054;8.600;2024-03-08T12:51:45;15.80;31.40
51029;DHT22;37054;52.054;8.600;2024-03-08T12:54:11;15.80;32.00
51029;DHT22;37054;52.054;8.600;2024-03-08T12:56:36;15.70;32.20
51029;DHT22;37054;52.054;8.600;2024-03-08T12:59:06;15.60;32.50
51029;DHT22;37054;52.054;8.600;2024-03-08T13:01:33;15.50;32.50
51029;DHT22;37054;52.054;8.600;2024-03-08T13:03:59;15.50;32.90
51029;DHT22;37054;52.054;8.600;2024-03-08T13:06:28;15.30;33.00
51029;DHT22;37054;52.054;8.600;2024-03-08T13:08:54;15.20;33.20
51029;DHT22;37054;52.054;8.600;2024-03-08T13:11:21;15.10;33.20
51029;DHT22;37054;52.054;8.600;2024-03-08T13:13:46;15.00;33.40
51029;DHT22;37054;52.054;8.600;2024-03-08T13:16:12;14.90;33.60
51029;DHT22;37054;52.054;8.600;2024-03-08T13:18:42;14.80;34.30
51029;DHT22;37054;52.054;8.600;2024-03-08T13:21:09;14.70;34.60
51029;DHT22;37054;52.054;8.600;2024-03-08T13:23:40;14.50;34.60
51029;DHT22;37054;52.054;8.600;2024-03-08T13:26:09;14.40;34.90
51029;DHT22;37054;52.054;8.600;2024-03-08T13:28:45;14.30;35.10
51029;DHT22;37054;52.054;8.600;2024-03-08T13:31:10;14.10;35.30
51029;DHT22;37054;52.054;8.600;2024-03-08T13:33:37;14.00;35.70
51029;DHT22;37054;52.054;8.600;2024-03-08T13:36:08;13.90;36.00
51029;DHT22;37054;52.054;8.600;2024-03-08T13:38:43;13.80;36.40
51029;DHT22;37054;52.054;8.600;2024-03-08T13:41:10;13.80;36.40
51029;DHT22;37054;52.054;8.600;2024-03-08T13:43:37;13.80;36.60
51029;DHT22;37054;52.054;8.600;2024-03-08T13:46:03;13.80;36.60
51029;DHT22;37054;52.054;8.600;2024-03-08T13:48:28;13.80;37.00
51029;DHT22;37054;52.054;8.600;2024-03-08T13:50:54;13.80;37.00
51029;DHT22;37054;52.054;8.600;2024-03-08T13:53:22;13.80;37.10
51029;DHT22;37054;52.054;8.600;2024-03-08T13:55:49;13.80;37.20
51029;DHT22;37054;52.054;8.600;2024-03-08T13:58:14;13.80;37.20
51029;DHT22;37054;52.054;8.600;2024-03-08T14:00:41;13.80;37.20
51029;DHT22;37054;52.054;8.600;2024-03-08T14:03:09;13.80;37.30
51029;DHT22;37054;52.054;8.600;2024-03-08T14:05:38;13.80;37.30
51029;DHT22;37054;52.054;8.600;2024-03-08T14:08:05;13.80;37.20
51029;DHT22;37054;52.054;8.600;2024-03-08T14:10:33;13.80;37.30
51029;DHT22;37054;52.054;8.600;2024-03-08T14:12:59;13.60;37.50
51029;DHT22;37054;52.054;8.600;2024-03-08T14:15:26;13.60;37.50
51029;DHT22;37054;52.054;8.600;2024-03-08T14:17:55;13.60;37.90
51029;DHT22;37054;52.054;8.600;2024-03-08T14:20:22;13.60;38.00
51029;DHT22;37054;52.054;8.600;2024-03-08T14:22:54;13.70;38.10
51029;DHT22;37054;52.054;8.600;2024-03-08T14:25:20;13.70;38.20
51029;DHT22;37054;52.054;8.600;2024-03-08T14:27:49;13.70;38.10
51029;DHT22;37054;52.054;8.600;2024-03-08T14:30:15;13.70;38.30
51029;DHT22;37054;52.054;8.600;2024-03-08T14:33:06;13.70;38.40
51029;DHT22;37054;52.054;8.600;2024-03-08T14:35:34;13.70;38.40
51029;DHT22;37054;52.054;8.600;2024-03-08T14:38:00;13.70;38.40
51029;DHT22;37054;52.054;8.600;2024-03-08T14:40:25;13.80;38.50
51029;DHT22;37054;52.054;8.600;2024-03-08T14:42:52;13.80;38.40
51029;DHT22;37054;52.054;8.600;2024-03-08T14:45:17;13.80;38.40
51029;DHT22;37054;52.054;8.600;2024-03-08T14:47:48;13.80;38.00
51029;DHT22;37054;52.054;8.600;2024-03-08T14:50:19;13.90;38.30
51029;DHT22;37054;52.054;8.600;2024-03-08T14:52:45;13.90;38.30
51029;DHT22;37054;52.054;8.600;2024-03-08T14:55:14;13.90;37.90
51029;DHT22;37054;52.054;8.600;2024-03-08T14:57:43;14.00;37.60
51029;DHT22;37054;52.054;8.600;2024-03-08T15:00:11;14.00;37.70
51029;DHT22;37054;52.054;8.600;2024-03-08T15:02:55;13.90;38.00
51029;DHT22;37054;52.054;8.600;2024-03-08T15:05:22;14.00;38.10
51029;DHT22;37054;52.054;8.600;2024-03-08T15:07:52;13.90;37.40
51029;DHT22;37054;52.054;8.600;2024-03-08T15:10:17;14.00;36.50
51029;DHT22;37054;52.054;8.600;2024-03-08T15:12:45;13.90;36.10
51029;DHT22;37054;52.054;8.600;2024-03-08T15:15:14;14.00;36.40
51029;DHT22;37054;52.054;8.600;2024-03-08T15:17:44;14.00;36.40
51029;DHT22;37054;52.054;8.600;2024-03-08T15:20:12;14.00;36.40
51029;DHT22;37054;52.054;8.600;2024-03-08T15:22:53;14.00;36.50
51029;DHT22;37054;52.054;8.600;2024-03-08T15:25:20;14.00;36.50
51029;DHT22;37054;52.054;8.600;2024-03-08T15:27:49;14.00;36.40
51029;DHT22;37054;52.054;8.600;2024-03-08T15:30:15;13.90;35.90
51029;DHT22;37054;52.054;8.600;2024-03-08T15:32:48;14.00;35.70
51029;DHT22;37054;52.054;8.600;2024-03-08T15:35:16;13.90;35.80
51029;DHT22;37054;52.054;8.600;2024-03-08T15:37:42;14.00;35.40
51029;DHT22;37054;52.054;8.600;2024-03-08T15:40:12;13.90;35.40
51029;DHT22;37054;52.054;8.600;2024-03-08T15:42:56;13.80;35.20
51029;DHT22;37054;52.054;8.600;2024-03-08T15:45:23;13.80;35.30
51029;DHT22;37054;52.054;8.600;2024-03-08T15:47:49;13.80;35.30
51029;DHT22;37054;52.054;8.600;2024-03-08T15:50:15;13.80;35.30
51029;DHT22;37054;52.054;8.600;2024-03-08T15:52:44;13.80;35.30